Time;durP1;ratioP1;P1;durP2;ratioP2;P2;SDS_P1;SDS_P2;PMS_P1;PMS_P2;Temp;Humidity;BMP_temperature;BMP_pressure;BME280_temperature;BME280_humidity;BME280_pressure;Samples;Min_cycle;Max_cycle;Signal;HPM_P1;HPM_P2
2021/10/16 00:01:14;;;;;;;56.42;31.73;;;256.70;2124.80;;;;;;5093052;28;19908;-77
2021/10/16 00:03:40;;;;;;;60.67;31.98;;;256.80;2252.80;;;;;;5092622;28;20020;-76
2021/10/16 00:06:07;;;;;;;56.08;30.10;;;256.80;1868.80;;;;;;5091141;28;20035;-77
2021/10/16 00:08:33;;;;;;;48.92;30.10;;;256.70;1868.80;;;;;;5093766;28;20082;-77
2021/10/16 00:10:59;;;;;;;54.05;29.42;;;256.80;2099.20;;;;;;5093344;28;20036;-76
2021/10/16 00:13:24;;;;;;;;;;;256.70;2252.80;;;;;;5091960;28;20039;-76
2021/10/16 00:15:50;;;;;;;48.88;27.02;;;256.70;1868.80;;;;;;5093230;28;19954;-77
2021/10/16 00:18:16;;;;;;;45.00;26.90;;;256.70;1971.20;;;;;;5092063;28;20379;-77
2021/10/16 00:20:42;;;;;;;50.40;28.02;;;256.70;2252.80;;;;;;5093362;28;20028;-77
2021/10/16 00:23:08;;;;;;;49.55;26.15;;;256.70;2252.80;;;;;;5093655;28;20016;-78
2021/10/16 00:25:34;;;;;;;44.05;24.80;;;256.90;2124.80;;;;;;5092632;28;20024;-78
2021/10/16 00:28:00;;;;;;;41.72;25.20;;;256.80;2099.20;;;;;;5093653;28;20578;-77
2021/10/16 00:30:26;;;;;;;;;;;256.80;2252.80;;;;;;5093936;28;20066;-79
2021/10/16 00:32:52;;;;;;;44.47;25.20;;;256.80;2252.80;;;;;;5092372;28;19946;-77
2021/10/16 00:35:17;;;;;;;45.17;25.85;;;256.80;2252.80;;;;;;5092675;28;20123;-77
2021/10/16 00:37:43;;;;;;;45.70;28.10;;;256.70;2252.80;;;;;;5092462;28;20103;-77
2021/10/16 00:40:09;;;;;;;;;;;256.70;2252.80;;;;;;5092047;28;20082;-77
2021/10/16 00:42:49;;;;;;;42.30;25.33;;;256.70;2252.80;;;;;;5093535;28;19923;-78
2021/10/16 00:45:16;;;;;;;43.10;24.45;;;256.70;2252.80;;;;;;5090914;28;20089;-77
2021/10/16 00:47:42;;;;;;;45.45;25.95;;;256.70;2252.80;;;;;;5093464;28;20016;-78
2021/10/16 00:50:10;;;;;;;43.97;25.13;;;256.80;2252.80;;;;;;5090875;28;20115;-77
2021/10/16 00:52:38;;;;;;;40.92;23.77;;;281.80;2278.40;;;;;;5092405;28;20024;-77
2021/10/16 00:55:06;;;;;;;37.22;22.67;;;256.90;1920.00;;;;;;5093302;28;20023;-76
2021/10/16 00:57:32;;;;;;;43.15;24.20;;;256.90;2252.80;;;;;;5093101;28;20027;-78
2021/10/16 00:59:58;;;;;;;36.70;21.98;;;256.80;2252.80;;;;;;5091852;28;20020;-76
2021/10/16 01:02:24;;;;;;;42.45;24.88;;;256.80;2150.40;;;;;;5091930;28;20529;-76
2021/10/16 01:04:49;;;;;;;;;;;256.90;2150.40;;;;;;5094060;28;20031;-77
2021/10/16 01:07:15;;;;;;;37.22;22.27;;;256.90;2252.80;;;;;;5091943;28;19904;-77
2021/10/16 01:09:46;;;;;;;38.85;23.35;;;256.90;2252.80;;;;;;5091449;28;20055;-78
2021/10/16 01:12:12;;;;;;;42.78;22.83;;;256.80;2252.80;;;;;;5089442;28;20024;-77
2021/10/16 01:14:50;;;;;;;37.42;22.00;;;256.80;2252.80;;;;;;5091880;28;20055;-77
2021/10/16 01:17:18;;;;;;;34.00;19.88;;;256.80;2252.80;;;;;;5089825;28;20035;-77
2021/10/16 01:19:45;;;;;;;37.65;20.58;;;256.80;1868.80;;;;;;5080100;28;20082;-78
2021/10/16 01:22:12;;;;;;;36.72;21.63;;;256.70;2252.80;;;;;;5089025;28;20519;-77
2021/10/16 01:24:38;;;;;;;34.60;20.92;;;256.70;2252.80;;;;;;5091588;28;20024;-77
2021/10/16 01:27:05;;;;;;;39.25;21.60;;;256.70;2252.80;;;;;;5088889;28;20120;-76
2021/10/16 01:29:34;;;;;;;35.95;21.88;;;281.60;2278.40;;;;;;5082774;28;20028;-77
2021/10/16 01:32:02;;;;;;;36.15;21.85;;;256.60;2252.80;;;;;;5091616;28;20024;-76
2021/10/16 01:34:28;;;;;;;43.08;24.50;;;256.70;2252.80;;;;;;5091466;28;20113;-79
2021/10/16 01:36:54;;;;;;;39.85;23.52;;;256.70;2252.80;;;;;;5092559;28;20020;-78
2021/10/16 01:39:21;;;;;;;40.67;24.27;;;256.70;2252.80;;;;;;5091454;28;20054;-76
2021/10/16 01:41:47;;;;;;;39.30;23.45;;;256.70;2252.80;;;;;;5091258;28;20021;-76
2021/10/16 01:44:14;;;;;;;38.53;21.80;;;256.70;2252.80;;;;;;5091924;28;20028;-80
2021/10/16 01:46:40;;;;;;;34.83;22.02;;;256.70;2124.80;;;;;;5092504;28;20046;-76
2021/10/16 01:49:12;;;;;;;37.13;21.60;;;256.70;1945.60;;;;;;5092411;28;20043;-77
2021/10/16 01:51:38;;;;;;;34.70;20.17;;;256.70;2252.80;;;;;;5091446;28;20020;-76
2021/10/16 01:54:05;;;;;;;40.75;20.98;;;256.60;1971.20;;;;;;5092730;28;20490;-77
2021/10/16 01:56:31;;;;;;;37.28;20.90;;;256.50;2099.20;;;;;;5094146;28;20029;-76
2021/10/16 01:59:09;;;;;;;36.80;19.45;;;256.60;2176.00;;;;;;5095674;28;20153;-76
2021/10/16 02:01:35;;;;;;;31.35;19.92;;;256.60;2252.80;;;;;;5093378;28;20069;-77
2021/10/16 02:04:00;;;;;;;32.42;20.65;;;256.60;2252.80;;;;;;5096419;28;20055;-77
2021/10/16 02:06:26;;;;;;;35.80;20.33;;;256.50;2252.80;;;;;;5094891;28;20040;-76
2021/10/16 02:08:52;;;;;;;;;;;256.60;2252.80;;;;;;5094990;28;20044;-78
2021/10/16 02:11:17;;;;;;;33.05;18.75;;;256.60;2252.80;;;;;;5096262;28;19911;-77
2021/10/16 02:13:43;;;;;;;;;;;256.60;2252.80;;;;;;5094629;28;20028;-76
2021/10/16 02:16:09;;;;;;;30.23;18.67;;;256.70;2252.80;;;;;;5095234;28;19908;-77
2021/10/16 02:18:35;;;;;;;32.50;19.90;;;256.60;2252.80;;;;;;5095863;28;20023;-77
2021/10/16 02:21:00;;;;;;;30.88;18.63;;;256.70;2252.80;;;;;;5094801;28;20126;-79
2021/10/16 02:23:26;;;;;;;;;;;256.70;2252.80;;;;;;5096549;28;20040;-76
2021/10/16 02:25:52;;;;;;;31.42;17.98;;;256.70;2252.80;;;;;;5095112;28;19904;-77
2021/10/16 02:28:17;;;;;;;31.63;18.33;;;256.50;2252.80;;;;;;5095697;28;20028;-76
2021/10/16 02:30:43;;;;;;;;;;;256.50;2252.80;;;;;;5094545;28;20111;-78
2021/10/16 02:33:09;;;;;;;27.50;16.40;;;256.50;2252.80;;;;;;5094870;28;19904;-78
2021/10/16 02:35:34;;;;;;;;;;;256.60;2252.80;;;;;;5095846;28;20070;-77
2021/10/16 02:38:00;;;;;;;26.92;15.88;;;256.50;2252.80;;;;;;5093877;28;19908;-75
2021/10/16 02:40:26;;;;;;;;;;;256.50;2252.80;;;;;;5094894;28;20046;-76
2021/10/16 02:42:52;;;;;;;30.23;17.55;;;256.50;2252.80;;;;;;5092714;28;19911;-77
2021/10/16 02:45:18;;;;;;;;;;;256.50;2252.80;;;;;;5095839;28;20024;-76
2021/10/16 02:47:46;;;;;;;31.85;17.25;;;256.50;2252.80;;;;;;5095283;28;19911;-76
2021/10/16 02:50:12;;;;;;;27.83;16.20;;;256.50;2252.80;;;;;;5095356;28;20032;-76
2021/10/16 02:52:38;;;;;;;30.13;17.23;;;256.50;2252.80;;;;;;5094447;28;20461;-77
2021/10/16 02:55:04;;;;;;;27.63;17.00;;;256.50;2252.80;;;;;;5094140;28;20028;-77
2021/10/16 02:57:30;;;;;;;27.23;17.25;;;256.50;2252.80;;;;;;5095299;28;20464;-76
2021/10/16 02:59:56;;;;;;;31.00;17.13;;;256.50;2252.80;;;;;;5094276;28;20042;-76
2021/10/16 03:02:21;;;;;;;36.13;17.80;;;256.50;2252.80;;;;;;5093560;28;20032;-77
2021/10/16 03:04:47;;;;;;;27.67;16.25;;;256.50;2252.80;;;;;;5093596;28;20130;-77
2021/10/16 03:07:13;;;;;;;;;;;256.50;2252.80;;;;;;5095508;28;20494;-76
2021/10/16 03:09:39;;;;;;;26.88;16.48;;;256.50;2252.80;;;;;;5093730;28;20414;-77
2021/10/16 03:12:04;;;;;;;;;;;256.50;2252.80;;;;;;5094917;28;20486;-78
2021/10/16 03:14:30;;;;;;;27.23;16.23;;;256.50;2252.80;;;;;;5094904;28;19904;-77
2021/10/16 03:16:56;;;;;;;25.85;16.15;;;256.50;2252.80;;;;;;5094096;28;20070;-78
2021/10/16 03:19:21;;;;;;;;;;;256.50;2252.80;;;;;;5095358;28;20039;-77
2021/10/16 03:21:48;;;;;;;25.20;15.95;;;256.50;2252.80;;;;;;5094692;28;19904;-78
2021/10/16 03:24:14;;;;;;;26.83;15.25;;;256.50;2252.80;;;;;;5090969;28;20399;-76
2021/10/16 03:26:39;;;;;;;25.15;16.42;;;256.50;2252.80;;;;;;5095194;28;20023;-77
2021/10/16 03:29:05;;;;;;;;;;;256.50;2252.80;;;;;;5095023;28;20107;-78
2021/10/16 03:31:31;;;;;;;27.17;16.35;;;256.50;2252.80;;;;;;5093397;28;19908;-77
2021/10/16 03:33:56;;;;;;;;;;;256.60;2252.80;;;;;;5093887;28;20027;-77
2021/10/16 03:36:22;;;;;;;27.27;16.55;;;256.50;2252.80;;;;;;5093437;28;19943;-79
2021/10/16 03:38:48;;;;;;;;;;;256.60;2252.80;;;;;;5093076;28;20032;-76
2021/10/16 03:41:14;;;;;;;26.17;16.27;;;256.70;2252.80;;;;;;5094408;28;20007;-76
2021/10/16 03:43:39;;;;;;;25.45;14.73;;;256.60;2252.80;;;;;;5094514;28;20016;-76
2021/10/16 03:46:05;;;;;;;29.27;17.38;;;256.60;2252.80;;;;;;5095047;28;20027;-77
2021/10/16 03:48:31;;;;;;;;;;;256.60;2252.80;;;;;;5095172;28;20028;-76
2021/10/16 03:50:57;;;;;;;26.77;16.23;;;256.50;2252.80;;;;;;5094244;28;19908;-76
2021/10/16 03:53:22;;;;;;;24.35;16.15;;;256.50;2252.80;;;;;;5093340;28;20062;-77
2021/10/16 03:55:48;;;;;;;25.45;16.38;;;256.50;2252.80;;;;;;5094585;28;20077;-77
2021/10/16 03:58:14;;;;;;;;;;;256.50;2252.80;;;;;;5092949;28;20020;-76
2021/10/16 04:00:40;;;;;;;25.45;15.70;;;256.50;2252.80;;;;;;5092654;28;19995;-76
2021/10/16 04:03:06;;;;;;;;;;;256.50;2252.80;;;;;;5094552;28;20044;-79
2021/10/16 04:05:33;;;;;;;28.95;16.35;;;256.50;2252.80;;;;;;5094072;28;19911;-78
2021/10/16 04:07:59;;;;;;;28.10;15.95;;;256.70;2252.80;;;;;;5092707;28;20020;-76
2021/10/16 04:10:25;;;;;;;28.25;16.77;;;256.50;2252.80;;;;;;5094258;28;20120;-78
2021/10/16 04:12:50;;;;;;;22.17;14.20;;;256.60;2252.80;;;;;;5080897;28;20531;-76
2021/10/16 04:15:16;;;;;;;;;;;256.50;2252.80;;;;;;5092967;28;20036;-77
2021/10/16 04:17:45;;;;;;;22.88;14.98;;;256.60;2252.80;;;;;;5093917;28;19983;-77
2021/10/16 04:20:12;;;;;;;25.98;16.42;;;256.50;2252.80;;;;;;5093511;28;20024;-77
2021/10/16 04:22:38;;;;;;;27.17;17.42;;;256.60;2252.80;;;;;;5093856;28;20008;-76
2021/10/16 04:25:04;;;;;;;26.27;15.50;;;256.70;2252.80;;;;;;5092314;28;20030;-77
2021/10/16 04:27:30;;;;;;;23.70;15.65;;;256.70;2252.80;;;;;;5074898;28;20353;-77
2021/10/16 04:29:56;;;;;;;27.83;15.80;;;256.70;2252.80;;;;;;5078652;28;20048;-77
2021/10/16 04:32:21;;;;;;;;;;;256.70;2252.80;;;;;;5075018;28;20465;-77
2021/10/16 04:34:47;;;;;;;22.55;14.35;;;256.70;2252.80;;;;;;5082088;28;20318;-77
2021/10/16 04:37:15;;;;;;;;;;;256.70;2252.80;;;;;;5086498;28;20028;-77
2021/10/16 04:39:40;;;;;;;24.13;14.32;;;256.70;2252.80;;;;;;5091738;28;20375;-77
2021/10/16 04:42:06;;;;;;;25.67;15.23;;;256.50;2252.80;;;;;;5092108;28;20112;-76
2021/10/16 04:44:34;;;;;;;28.65;16.13;;;256.50;2252.80;;;;;;5093126;28;20020;-77
2021/10/16 04:47:00;;;;;;;27.42;16.88;;;256.50;2252.80;;;;;;5093375;28;20039;-77
2021/10/16 04:49:27;;;;;;;27.38;16.67;;;256.50;2252.80;;;;;;5092110;28;20791;-77
2021/10/16 04:51:53;;;;;;;27.40;17.10;;;256.50;2252.80;;;;;;5093478;28;20024;-77
2021/10/16 04:54:18;;;;;;;25.75;17.10;;;256.50;2252.80;;;;;;5092085;28;20032;-77
2021/10/16 04:56:44;;;;;;;26.17;15.98;;;256.70;2252.80;;;;;;5092182;28;20020;-77
2021/10/16 04:59:10;;;;;;;23.42;15.35;;;256.50;2252.80;;;;;;5091995;28;20012;-77
2021/10/16 05:01:36;;;;;;;;;;;256.60;2252.80;;;;;;5093374;28;20095;-78
2021/10/16 05:04:01;;;;;;;25.98;15.77;;;256.60;2252.80;;;;;;5091776;28;20000;-77
2021/10/16 05:06:32;;;;;;;29.67;16.60;;;256.50;2252.80;;;;;;5091473;28;20032;-76
2021/10/16 05:08:58;;;;;;;30.52;16.55;;;256.50;2252.80;;;;;;5092551;28;20109;-76
2021/10/16 05:11:24;;;;;;;29.20;15.73;;;256.50;2252.80;;;;;;5092242;28;20111;-77
2021/10/16 05:13:49;;;;;;;28.70;16.83;;;256.50;2252.80;;;;;;5091600;28;20457;-77
2021/10/16 05:16:15;;;;;;;27.70;16.50;;;256.50;2252.80;;;;;;5092676;28;20507;-76
2021/10/16 05:18:40;;;;;;;;;;;256.50;2252.80;;;;;;5084154;28;20020;-77
2021/10/16 05:21:06;;;;;;;22.52;14.70;;;256.50;2252.80;;;;;;5087238;28;19915;-76
2021/10/16 05:23:32;;;;;;;;;;;256.50;2252.80;;;;;;5093152;28;20016;-76
2021/10/16 05:25:58;;;;;;;28.05;15.73;;;256.50;2252.80;;;;;;5092469;28;19943;-79
2021/10/16 05:28:24;;;;;;;29.70;17.40;;;256.50;2252.80;;;;;;5091340;28;20518;-77
2021/10/16 05:30:50;;;;;;;23.73;16.33;;;256.50;2252.80;;;;;;5093762;28;20118;-77
2021/10/16 05:33:15;;;;;;;;;;;256.60;2252.80;;;;;;5088665;28;20434;-77
2021/10/16 05:35:44;;;;;;;30.00;17.63;;;256.50;2252.80;;;;;;5094519;28;19943;-78
2021/10/16 05:38:14;;;;;;;31.67;16.77;;;256.50;2252.80;;;;;;5095495;28;20019;-77
2021/10/16 05:40:41;;;;;;;29.33;17.35;;;256.50;2252.80;;;;;;5085829;28;20024;-77
2021/10/16 05:43:07;;;;;;;39.05;20.20;;;256.50;2252.80;;;;;;5095788;28;20016;-77
2021/10/16 05:45:33;;;;;;;34.25;19.02;;;256.50;2252.80;;;;;;5095519;28;20027;-79
2021/10/16 05:47:59;;;;;;;50.20;22.63;;;256.60;2252.80;;;;;;5092405;28;20035;-77
2021/10/16 05:50:25;;;;;;;56.95;25.73;;;256.60;2252.80;;;;;;5094678;28;20388;-77
2021/10/16 05:52:51;;;;;;;58.45;26.75;;;256.60;2252.80;;;;;;5094827;28;20383;-80
2021/10/16 05:55:17;;;;;;;51.33;25.40;;;256.70;2252.80;;;;;;5094432;28;20023;-78
2021/10/16 05:57:43;;;;;;;40.83;23.05;;;256.70;2252.80;;;;;;5095935;28;20012;-80
2021/10/16 06:00:09;;;;;;;39.08;20.88;;;256.70;2252.80;;;;;;5095528;28;20023;-79
2021/10/16 06:02:35;;;;;;;51.45;25.35;;;256.90;2252.80;;;;;;5095880;28;20051;-78
2021/10/16 06:05:01;;;;;;;47.83;24.95;;;256.90;2252.80;;;;;;5095003;28;20097;-79
2021/10/16 06:07:27;;;;;;;44.58;23.83;;;256.90;2252.80;;;;;;5094480;28;20384;-78
2021/10/16 06:09:52;;;;;;;;;;;256.90;2252.80;;;;;;5094948;28;20055;-79
2021/10/16 06:12:18;;;;;;;39.92;20.35;;;256.90;2252.80;;;;;;5094979;28;19911;-78
2021/10/16 06:14:44;;;;;;;46.53;23.92;;;256.90;2252.80;;;;;;5095003;28;20027;-79
2021/10/16 06:17:10;;;;;;;47.00;24.38;;;281.60;2278.40;;;;;;5094932;28;20145;-80
2021/10/16 06:19:36;;;;;;;;;;;281.60;2278.40;;;;;;5095526;28;20408;-80
2021/10/16 06:22:02;;;;;;;37.88;20.55;;;256.90;2252.80;;;;;;5106152;28;19908;-79
2021/10/16 06:24:28;;;;;;;32.88;19.65;;;281.60;2278.40;;;;;;5104167;28;20048;-78
2021/10/16 06:26:54;;;;;;;34.00;19.40;;;281.60;2278.40;;;;;;5096054;28;20471;-77
2021/10/16 06:29:20;;;;;;;;;;;281.70;2278.40;;;;;;5095311;28;20028;-79
2021/10/16 06:31:45;;;;;;;44.13;24.33;;;281.70;2278.40;;;;;;5094583;28;20003;-79
2021/10/16 06:34:11;;;;;;;54.60;29.58;;;281.70;2278.40;;;;;;5092274;28;20028;-79
2021/10/16 06:36:37;;;;;;;;;;;281.70;2278.40;;;;;;5085902;28;20032;-80
2021/10/16 06:39:03;;;;;;;50.13;25.45;;;281.70;2278.40;;;;;;5094278;28;20323;-78
2021/10/16 06:41:28;;;;;;;44.40;24.48;;;281.60;2278.40;;;;;;5094933;28;20044;-78
2021/10/16 06:43:54;;;;;;;;;;;281.60;2278.40;;;;;;5094758;28;20376;-78
2021/10/16 06:46:20;;;;;;;49.67;26.50;;;256.90;2252.80;;;;;;5090775;28;20271;-78
2021/10/16 06:48:45;;;;;;;;;;;256.90;2252.80;;;;;;5086091;28;20077;-80
2021/10/16 06:51:11;;;;;;;36.85;22.42;;;281.60;2278.40;;;;;;5095370;28;20014;-78
2021/10/16 06:53:38;;;;;;;;;;;281.60;2278.40;;;;;;5094275;28;20024;-76
2021/10/16 06:56:04;;;;;;;29.10;18.08;;;256.90;2252.80;;;;;;5095142;28;19912;-78
2021/10/16 06:58:30;;;;;;;31.70;18.65;;;256.90;2252.80;;;;;;5080881;28;20559;-77
2021/10/16 07:00:55;;;;;;;30.98;18.80;;;256.90;2252.80;;;;;;5094962;28;20159;-77
2021/10/16 07:03:21;;;;;;;;;;;256.90;2252.80;;;;;;5095433;28;20031;-75
2021/10/16 07:05:47;;;;;;;30.75;18.85;;;256.90;2252.80;;;;;;5093698;28;19912;-76
2021/10/16 07:08:12;;;;;;;;;;;256.90;2252.80;;;;;;5093947;28;20062;-76
2021/10/16 07:10:38;;;;;;;29.63;17.15;;;281.60;2278.40;;;;;;5093279;28;19915;-77
2021/10/16 07:13:05;;;;;;;;;;;281.60;2278.40;;;;;;5095232;28;20020;-78
2021/10/16 07:15:32;;;;;;;29.98;16.63;;;281.60;2278.40;;;;;;5094779;28;19943;-77
2021/10/16 07:17:58;;;;;;;31.95;17.15;;;256.90;2252.80;;;;;;5094620;28;20028;-77
2021/10/16 07:20:24;;;;;;;28.98;16.80;;;281.70;2278.40;;;;;;5090833;28;20061;-79
2021/10/16 07:22:50;;;;;;;34.75;17.73;;;281.60;2278.40;;;;;;5093552;28;20467;-79
2021/10/16 07:25:16;;;;;;;34.28;19.02;;;281.90;2278.40;;;;;;5093468;28;20028;-79
2021/10/16 07:27:42;;;;;;;28.50;18.75;;;281.90;2278.40;;;;;;5093180;28;20016;-79
2021/10/16 07:30:08;;;;;;;30.65;17.33;;;281.90;2278.40;;;;;;5093363;28;20032;-80
2021/10/16 07:32:35;;;;;;;31.52;19.40;;;282.00;2278.40;;;;;;5093472;28;20138;-79
2021/10/16 07:35:00;;;;;;;33.42;19.92;;;281.70;2278.40;;;;;;5093276;28;20552;-80
2021/10/16 07:37:26;;;;;;;33.20;20.45;;;282.00;2278.40;;;;;;5092911;28;20031;-79
2021/10/16 07:39:52;;;;;;;28.20;17.23;;;282.00;2278.40;;;;;;5086584;28;20029;-79
2021/10/16 07:42:18;;;;;;;37.55;17.73;;;282.10;2278.40;;;;;;5093018;28;20097;-79
2021/10/16 07:44:43;;;;;;;32.97;20.38;;;282.10;2278.40;;;;;;5093047;28;20357;-80
2021/10/16 07:47:09;;;;;;;36.53;19.98;;;282.20;2278.40;;;;;;5092859;28;20111;-80
2021/10/16 07:49:35;;;;;;;29.25;17.48;;;282.30;2278.40;;;;;;5092469;28;20040;-79
2021/10/16 07:52:00;;;;;;;;;;;282.30;2278.40;;;;;;5093344;28;20528;-80
2021/10/16 07:54:26;;;;;;;25.10;15.05;;;282.50;2278.40;;;;;;5092520;28;20359;-83
2021/10/16 07:56:52;;;;;;;;;;;282.50;2278.40;;;;;;5093721;28;20027;-82
2021/10/16 07:59:18;;;;;;;25.67;16.17;;;282.50;2278.40;;;;;;5082820;28;19958;-80
2021/10/16 08:01:43;;;;;;;;;;;282.50;2278.40;;;;;;5093251;28;20368;-80
2021/10/16 08:04:09;;;;;;;26.48;16.05;;;307.20;2304.00;;;;;;5092609;28;19908;-78
2021/10/16 08:06:35;;;;;;;;;;;307.20;2304.00;;;;;;5093047;28;20032;-78
2021/10/16 08:09:02;;;;;;;30.38;17.60;;;307.30;2304.00;;;;;;5092254;28;19927;-76
2021/10/16 08:11:28;;;;;;;25.38;15.20;;;307.30;2304.00;;;;;;5093529;28;20020;-77
2021/10/16 08:13:54;;;;;;;27.58;17.40;;;307.30;2304.00;;;;;;5093676;28;20452;-77
2021/10/16 08:16:19;;;;;;;31.83;19.88;;;307.30;2304.00;;;;;;5093374;28;20040;-78
2021/10/16 08:18:45;;;;;;;30.45;17.30;;;307.40;2304.00;;;;;;5089192;28;20043;-77
2021/10/16 08:21:11;;;;;;;;;;;307.40;2304.00;;;;;;5092729;28;20023;-77
2021/10/16 08:23:37;;;;;;;31.95;19.02;;;307.50;2304.00;;;;;;5092363;28;19994;-79
2021/10/16 08:26:03;;;;;;;28.83;17.25;;;307.60;2304.00;;;;;;5093441;28;20024;-79
2021/10/16 08:28:30;;;;;;;33.20;17.35;;;307.60;2304.00;;;;;;5092183;28;20024;-79
2021/10/16 08:30:58;;;;;;;24.35;15.63;;;307.70;2304.00;;;;;;5092030;28;20127;-77
2021/10/16 08:33:25;;;;;;;31.10;17.70;;;307.80;2304.00;;;;;;5093274;28;20057;-80
2021/10/16 08:35:50;;;;;;;28.83;15.98;;;307.80;2304.00;;;;;;5092072;28;20032;-78
2021/10/16 08:38:25;;;;;;;37.35;17.48;;;307.80;2304.00;;;;;;5091475;28;20024;-80
2021/10/16 08:40:51;;;;;;;27.20;16.27;;;307.90;2304.00;;;;;;5090198;28;20027;-78
2021/10/16 08:43:18;;;;;;;28.15;16.15;;;307.90;2304.00;;;;;;5092706;28;20032;-77
2021/10/16 08:45:45;;;;;;;27.92;16.42;;;308.00;2304.00;;;;;;5085872;28;20123;-78
2021/10/16 08:48:14;;;;;;;30.25;17.73;;;308.00;2304.00;;;;;;5088516;28;20032;-76
2021/10/16 08:50:40;;;;;;;28.35;16.98;;;308.10;2304.00;;;;;;5091418;28;20043;-77
2021/10/16 08:53:06;;;;;;;22.15;14.23;;;308.10;2304.00;;;;;;5091661;28;20063;-79
2021/10/16 08:55:32;;;;;;;26.98;15.05;;;308.10;2304.00;;;;;;5091203;28;20068;-78
2021/10/16 08:57:57;;;;;;;28.85;14.82;;;332.80;2329.60;;;;;;5090736;28;20123;-78
2021/10/16 09:00:44;;;;;;;27.88;15.05;;;332.80;2329.60;;;;;;5091113;28;20051;-79
2021/10/16 09:03:20;;;;;;;22.67;14.70;;;332.90;2329.60;;;;;;5089002;28;20028;-77
2021/10/16 09:06:06;;;;;;;25.52;13.80;;;333.00;2329.60;;;;;;5092365;28;20081;-79
2021/10/16 09:08:40;;;;;;;22.70;13.27;;;333.10;2329.60;;;;;;5089171;28;20056;-82
2021/10/16 09:11:24;;;;;;;22.90;14.30;;;333.20;2329.60;;;;;;5093123;28;20038;-79
2021/10/16 09:13:55;;;;;;;25.23;16.15;;;333.30;2329.60;;;;;;5090539;28;20042;-79
2021/10/16 09:16:26;;;;;;;25.27;13.77;;;333.40;2329.60;;;;;;5078036;28;20074;-80
2021/10/16 09:19:08;;;;;;;22.20;13.68;;;333.50;2329.60;;;;;;5090909;28;20118;-80
2021/10/16 09:21:35;;;;;;;19.88;12.73;;;333.50;2329.60;;;;;;5088821;28;20028;-81
2021/10/16 09:24:10;;;;;;;24.33;13.70;;;333.60;2329.60;;;;;;5092300;28;20103;-81
2021/10/16 09:26:39;;;;;;;29.10;15.00;;;333.70;2329.60;;;;;;5095012;28;20055;-79
2021/10/16 09:29:07;;;;;;;27.10;14.52;;;333.70;2329.60;;;;;;5093946;28;20475;-83
2021/10/16 09:31:54;;;;;;;22.90;13.43;;;358.40;2329.60;;;;;;5092167;28;20020;-81
2021/10/16 09:34:32;;;;;;;22.10;14.32;;;358.50;2329.60;;;;;;5091880;28;20028;-80
2021/10/16 09:37:04;;;;;;;22.02;13.88;;;358.60;2329.60;;;;;;5091057;28;20043;-78
2021/10/16 09:39:31;;;;;;;24.77;15.93;;;358.70;2329.60;;;;;;5090813;28;20024;-77
2021/10/16 09:41:57;;;;;;;27.73;16.13;;;358.80;2329.60;;;;;;5091849;28;20399;-81
2021/10/16 09:44:32;;;;;;;31.80;17.50;;;358.90;2329.60;;;;;;5092508;28;20021;-80
2021/10/16 09:47:15;;;;;;;24.65;14.93;;;358.90;2329.60;;;;;;5088832;28;20024;-79
2021/10/16 09:50:02;;;;;;;22.67;14.52;;;359.00;2329.60;;;;;;5090604;28;20043;-79
2021/10/16 09:52:35;;;;;;;22.20;13.43;;;359.10;2329.60;;;;;;5091663;28;20074;-76
2021/10/16 09:55:01;;;;;;;24.75;15.00;;;359.10;2329.60;;;;;;5092776;28;20038;-79
2021/10/16 09:57:27;;;;;;;38.28;14.82;;;359.20;2329.60;;;;;;5091011;28;20031;-79
2021/10/16 09:59:53;;;;;;;28.25;15.88;;;359.20;2329.60;;;;;;5092732;28;20020;-79
2021/10/16 10:02:19;;;;;;;24.80;15.82;;;359.20;2329.60;;;;;;5092463;28;20066;-79
2021/10/16 10:04:48;;;;;;;20.80;13.57;;;359.20;2329.60;;;;;;5091338;28;20423;-79
2021/10/16 10:07:17;;;;;;;24.15;15.23;;;359.20;2329.60;;;;;;5091842;28;20028;-81
2021/10/16 10:09:45;;;;;;;24.95;14.70;;;359.30;2329.60;;;;;;5091346;28;20049;-80
2021/10/16 10:12:12;;;;;;;22.80;13.80;;;384.00;2329.60;;;;;;5091286;28;20077;-83
2021/10/16 10:14:39;;;;;;;27.65;14.52;;;384.10;2329.60;;;;;;5091853;28;20030;-82
2021/10/16 10:17:06;;;;;;;23.30;14.38;;;384.30;2329.60;;;;;;5093731;28;20035;-81
2021/10/16 10:19:45;;;;;;;18.67;12.43;;;384.40;2329.60;;;;;;5095436;28;20524;-79
2021/10/16 10:22:13;;;;;;;21.75;14.38;;;384.40;2329.60;;;;;;5096486;28;20043;-81
2021/10/16 10:24:42;;;;;;;21.50;12.32;;;384.40;2329.60;;;;;;5095336;28;20025;-82
2021/10/16 10:27:10;;;;;;;18.77;11.23;;;384.70;2329.60;;;;;;5095346;28;20032;-79
2021/10/16 10:29:50;;;;;;;18.30;10.98;;;384.90;2329.60;;;;;;5095115;28;20103;-80
2021/10/16 10:32:28;;;;;;;20.50;10.90;;;409.60;2355.20;;;;;;5095128;28;20020;-79
2021/10/16 10:34:59;;;;;;;16.83;9.75;;;409.80;2355.20;;;;;;5111720;28;20024;-80
2021/10/16 10:37:38;;;;;;;16.27;8.82;;;409.80;2304.00;;;;;;5115501;28;20049;-80
2021/10/16 10:40:17;;;;;;;23.75;11.25;;;409.90;2278.40;;;;;;5115250;28;20028;-79
2021/10/16 10:42:54;;;;;;;20.65;10.15;;;409.90;2329.60;;;;;;5115290;28;20030;-80
2021/10/16 10:45:33;;;;;;;13.27;8.73;;;409.90;2252.80;;;;;;5115416;28;20031;-80
2021/10/16 10:48:08;;;;;;;13.10;8.40;;;410.00;2252.80;;;;;;5115140;28;20016;-80
2021/10/16 10:50:39;;;;;;;22.17;8.40;;;409.90;2201.60;;;;;;5115048;28;20122;-80
2021/10/16 10:53:10;;;;;;;19.08;8.10;;;409.90;2150.40;;;;;;5116243;28;20034;-79
2021/10/16 10:55:57;;;;;;;16.75;8.43;;;409.90;2201.60;;;;;;5132150;27;20024;-78
2021/10/16 10:58:23;;;;;;;14.35;8.50;;;409.90;2201.60;;;;;;5114870;28;20016;-80
2021/10/16 11:00:52;;;;;;;17.48;8.90;;;409.80;2201.60;;;;;;5114682;28;20478;-79
2021/10/16 11:03:32;;;;;;;14.98;9.15;;;410.00;2176.00;;;;;;5114675;28;20023;-79
2021/10/16 11:06:14;;;;;;;16.05;9.15;;;409.90;2124.80;;;;;;5108660;28;20031;-79
2021/10/16 11:08:40;;;;;;;15.63;9.02;;;410.00;2099.20;;;;;;5093585;28;20036;-80
2021/10/16 11:11:06;;;;;;;17.25;9.82;;;410.10;2099.20;;;;;;5095105;28;20031;-79
2021/10/16 11:13:34;;;;;;;16.00;9.35;;;410.20;2124.80;;;;;;5094201;28;20123;-80
2021/10/16 11:16:04;;;;;;;12.40;8.48;;;410.30;2124.80;;;;;;5094032;28;20044;-81
2021/10/16 11:18:31;;;;;;;16.20;9.57;;;410.50;2073.60;;;;;;5093709;28;20056;-79
2021/10/16 11:21:07;;;;;;;18.40;9.73;;;435.30;2099.20;;;;;;5093907;28;20032;-78
2021/10/16 11:23:40;;;;;;;23.90;10.13;;;435.60;2099.20;;;;;;5100917;28;20095;-78
2021/10/16 11:26:08;;;;;;;15.57;9.63;;;435.60;2048.00;;;;;;5102464;28;20040;-78
2021/10/16 11:28:36;;;;;;;20.00;11.93;;;435.60;2022.40;;;;;;5093508;28;20083;-79
2021/10/16 11:31:02;;;;;;;16.65;10.90;;;435.40;2099.20;;;;;;5093090;28;20120;-79
2021/10/16 11:33:30;;;;;;;18.73;10.40;;;435.40;2099.20;;;;;;5098119;28;20118;-78
2021/10/16 11:35:58;;;;;;;17.05;11.50;;;435.40;2099.20;;;;;;5115154;28;20024;-79
2021/10/16 11:38:27;;;;;;;18.15;10.48;;;435.30;2073.60;;;;;;5113817;28;20032;-79
2021/10/16 11:40:54;;;;;;;23.30;13.38;;;435.50;2048.00;;;;;;5114841;28;20027;-80
2021/10/16 11:43:25;;;;;;;17.95;10.75;;;435.60;2048.00;;;;;;5115181;28;20216;-79
2021/10/16 11:45:53;;;;;;;15.38;9.40;;;435.80;2048.00;;;;;;5115065;28;20047;-79
2021/10/16 11:48:22;;;;;;;16.83;9.55;;;436.00;1996.80;;;;;;5113560;28;20035;-79
2021/10/16 11:50:50;;;;;;;14.88;8.90;;;436.10;1945.60;;;;;;5113395;28;20039;-79
2021/10/16 11:53:26;;;;;;;20.10;10.95;;;436.10;1945.60;;;;;;5114870;28;20532;-79
2021/10/16 11:56:12;;;;;;;15.85;9.02;;;460.80;1971.20;;;;;;5114786;28;20024;-79
2021/10/16 11:58:39;;;;;;;14.20;8.63;;;461.10;1945.60;;;;;;5113393;28;20091;-77
2021/10/16 12:01:11;;;;;;;15.18;8.93;;;461.10;1945.60;;;;;;5112486;28;20055;-77
2021/10/16 12:03:41;;;;;;;16.92;9.77;;;461.40;1945.60;;;;;;5112787;28;20043;-79
2021/10/16 12:06:09;;;;;;;15.60;10.10;;;461.50;1894.40;;;;;;5112962;28;20514;-79
2021/10/16 12:08:54;;;;;;;14.57;10.02;;;486.40;1894.40;;;;;;5102823;28;20089;-79
2021/10/16 12:11:39;;;;;;;14.70;9.02;;;461.70;1894.40;;;;;;5092285;28;20043;-79
2021/10/16 12:14:09;;;;;;;15.95;9.98;;;461.50;1894.40;;;;;;5092501;28;20028;-79
2021/10/16 12:16:48;;;;;;;13.90;8.82;;;461.70;1868.80;;;;;;5092773;28;20124;-79